Time;durP1;ratioP1;P1;durP2;ratioP2;P2;SDS_P1;SDS_P2;PMS_P1;PMS_P2;Temp;Humidity;BMP_temperature;BMP_pressure;BME280_temperature;BME280_humidity;BME280_pressure;Samples;Min_cycle;Max_cycle;Signal;HPM_P1;HPM_P2
2023/07/08 00:00:29;;;;;;;3.50;3.20;;;;;;;17.19;100.00;100191.23;105410;1256;60425;-43
2023/07/08 00:02:57;;;;;;;4.00;3.70;;;;;;;17.20;100.00;100181.06;105415;1257;73755;-41
2023/07/08 00:05:25;;;;;;;3.30;3.10;;;;;;;17.22;100.00;100167.73;105452;1262;63038;-44
2023/07/08 00:07:53;;;;;;;3.80;3.50;;;;;;;17.25;100.00;100160.98;105389;1257;72664;-44
2023/07/08 00:10:22;;;;;;;7.20;4.40;;;;;;;17.26;100.00;100159.70;105443;1260;60541;-41
2023/07/08 00:12:51;;;;;;;7.50;6.50;;;;;;;17.26;100.00;100177.64;105495;1257;60382;-42
2023/07/08 00:15:21;;;;;;;9.70;5.40;;;;;;;17.28;100.00;100198.81;105475;1257;72557;-42
2023/07/08 00:17:48;;;;;;;7.30;4.20;;;;;;;17.31;100.00;100210.36;105463;1260;65192;-43
2023/07/08 00:20:28;;;;;;;5.70;4.80;;;;;;;17.31;100.00;100213.16;105444;1256;72612;-42
2023/07/08 00:22:56;;;;;;;5.80;4.80;;;;;;;17.29;100.00;100210.29;105359;1259;61645;-42
2023/07/08 00:25:24;;;;;;;4.80;4.40;;;;;;;17.28;100.00;100209.98;105488;1257;60579;-42
2023/07/08 00:27:52;;;;;;;6.50;3.90;;;;;;;17.28;100.00;100211.55;105430;1262;73757;-42
2023/07/08 00:30:30;;;;;;;3.90;3.60;;;;;;;17.28;100.00;100211.89;105441;1262;65261;-43
2023/07/08 00:32:58;;;;;;;4.00;3.10;;;;;;;17.29;100.00;100208.70;105450;1260;71662;-44
2023/07/08 00:35:32;;;;;;;4.40;2.70;;;;;;;17.28;100.00;100206.31;105434;1259;61644;-43
2023/07/08 00:38:12;;;;;;;3.20;2.40;;;;;;;17.26;100.00;100200.88;105469;1262;60486;-43
2023/07/08 00:40:52;;;;;;;3.20;2.10;;;;;;;17.24;100.00;100208.45;105523;1262;72881;-43
2023/07/08 00:43:23;;;;;;;2.30;1.60;;;;;;;17.22;100.00;100211.83;105510;1262;64653;-41
2023/07/08 00:45:53;;;;;;;1.80;1.70;;;;;;;17.21;100.00;100201.79;105471;1260;72626;-41
2023/07/08 00:48:30;;;;;;;3.20;1.50;;;;;;;17.20;100.00;100189.11;105747;1253;61624;-42
2023/07/08 00:50:58;;;;;;;1.70;1.50;;;;;;;17.19;100.00;100177.98;105717;1258;60477;-41
2023/07/08 00:53:35;;;;;;;2.80;1.30;;;;;;;17.18;100.00;100174.91;105762;1253;72315;-44
2023/07/08 00:56:06;;;;;;;2.80;1.40;;;;;;;17.16;100.00;100183.53;105769;1258;64087;-43
2023/07/08 00:58:39;;;;;;;1.90;1.30;;;;;;;17.18;100.00;100181.67;105763;1259;71516;-41
2023/07/08 01:01:07;;;;;;;5.20;1.20;;;;;;;17.20;100.00;100179.51;105683;1257;60512;-42
2023/07/08 01:03:54;;;;;;;4.10;1.30;;;;;;;17.20;100.00;100180.05;105774;1259;60409;-41
2023/07/08 01:06:24;;;;;;;1.20;1.20;;;;;;;17.20;100.00;100182.98;105797;1261;73805;-42
2023/07/08 01:08:52;;;;;;;1.50;1.10;;;;;;;17.21;100.00;100178.42;105666;1258;64013;-42
2023/07/08 01:11:21;;;;;;;1.40;1.30;;;;;;;17.20;100.00;100174.08;105745;1253;72594;-42
2023/07/08 01:13:50;;;;;;;2.50;1.50;;;;;;;17.21;100.00;100185.41;105513;1258;60530;-45
2023/07/08 01:16:17;;;;;;;1.60;1.10;;;;;;;17.24;100.00;100189.08;105710;1254;60454;-45
2023/07/08 01:18:53;;;;;;;2.60;0.90;;;;;;;17.22;100.00;100187.08;105736;1255;71621;-44
2023/07/08 01:21:32;;;;;;;4.80;1.40;;;;;;;17.22;100.00;100184.27;105724;1259;64548;-45
2023/07/08 01:24:04;;;;;;;2.10;1.20;;;;;;;17.23;100.00;100182.64;105709;1258;71691;-41
2023/07/08 01:26:33;;;;;;;1.70;1.40;;;;;;;17.23;100.00;100181.80;105710;1258;61636;-42
2023/07/08 01:29:01;;;;;;;2.20;1.20;;;;;;;17.22;100.00;100176.80;105791;1253;60345;-44
2023/07/08 01:31:28;;;;;;;7.30;1.10;;;;;;;17.20;100.00;100178.46;105759;1257;72827;-42
2023/07/08 01:33:56;;;;;;;5.40;1.40;;;;;;;17.20;100.00;100177.95;105735;1253;64033;-41
2023/07/08 01:36:23;;;;;;;4.30;1.30;;;;;;;17.20;100.00;100182.68;105705;1259;71339;-41
2023/07/08 01:38:52;;;;;;;1.50;1.20;;;;;;;17.17;100.00;100176.54;105607;1255;60627;-42
2023/07/08 01:41:20;;;;;;;2.60;1.40;;;;;;;17.14;100.00;100174.56;105741;1253;60572;-42
2023/07/08 01:43:47;;;;;;;1.70;1.10;;;;;;;17.12;100.00;100171.38;105737;1259;72346;-42
2023/07/08 01:46:23;;;;;;;4.00;1.20;;;;;;;17.12;100.00;100169.83;105675;1259;63924;-40
2023/07/08 01:48:58;;;;;;;1.40;1.40;;;;;;;17.12;100.00;100168.40;105747;1257;72683;-42
2023/07/08 01:51:26;;;;;;;5.10;1.50;;;;;;;17.13;100.00;100173.77;105675;1255;60527;-41
2023/07/08 01:53:53;;;;;;;2.10;1.30;;;;;;;17.14;100.00;100185.23;105678;1259;60346;-43
2023/07/08 01:56:21;;;;;;;1.90;1.30;;;;;;;17.13;100.00;100184.73;105751;1259;73799;-43
2023/07/08 01:58:49;;;;;;;1.70;1.20;;;;;;;17.12;100.00;100181.65;105636;1258;64088;-44
2023/07/08 02:01:16;;;;;;;4.70;1.50;;;;;;;17.08;100.00;100177.30;105312;1257;71420;-41
2023/07/08 02:03:46;;;;;;;4.60;1.30;;;;;;;17.06;100.00;100172.04;105782;1255;61748;-46
2023/07/08 02:06:14;;;;;;;17.40;1.60;;;;;;;17.04;100.00;100167.60;105779;1257;60476;-43
2023/07/08 02:08:42;;;;;;;4.50;1.10;;;;;;;17.02;100.00;100168.76;105676;1253;72800;-42
2023/07/08 02:11:10;;;;;;;6.30;1.20;;;;;;;17.01;100.00;100166.88;105727;1254;64580;-43
2023/07/08 02:13:37;;;;;;;3.90;1.10;;;;;;;17.01;100.00;100169.64;105717;1254;71394;-44
2023/07/08 02:16:07;;;;;;;10.40;1.70;;;;;;;17.03;100.00;100162.77;105749;1257;61635;-43
2023/07/08 02:18:34;;;;;;;2.70;1.20;;;;;;;17.05;100.00;100156.90;105772;1259;60364;-41
2023/07/08 02:21:02;;;;;;;2.10;1.40;;;;;;;17.04;100.00;100152.73;105706;1257;72393;-42
2023/07/08 02:23:30;;;;;;;1.30;0.90;;;;;;;17.04;100.00;100151.17;105701;1257;64503;-42
2023/07/08 02:26:00;;;;;;;10.00;1.20;;;;;;;17.03;100.00;100149.69;105628;1259;71700;-43
2023/07/08 02:28:28;;;;;;;1.20;1.10;;;;;;;17.04;100.00;100151.22;105763;1259;60809;-43
2023/07/08 02:30:55;;;;;;;1.40;1.30;;;;;;;17.06;100.00;100153.54;105736;1255;60403;-45
2023/07/08 02:33:32;;;;;;;4.30;1.20;;;;;;;17.09;100.00;100160.36;105625;1254;72512;-42
2023/07/08 02:36:00;;;;;;;1.20;1.10;;;;;;;17.15;100.00;100160.41;105771;1259;63995;-42
2023/07/08 02:38:29;;;;;;;1.70;1.30;;;;;;;17.18;100.00;100164.29;105777;1259;72646;-44
2023/07/08 02:40:57;;;;;;;2.20;1.30;;;;;;;17.20;100.00;100155.77;105674;1266;60563;-44
2023/07/08 02:43:26;;;;;;;3.20;1.20;;;;;;;17.20;100.00;100149.88;105777;1259;60399;-42
2023/07/08 02:45:54;;;;;;;9.20;1.80;;;;;;;17.19;100.00;100142.06;105667;1254;72189;-44
2023/07/08 02:48:21;;;;;;;4.00;1.30;;;;;;;17.21;100.00;100140.76;105738;1255;63906;-43
2023/07/08 02:50:50;;;;;;;1.30;1.20;;;;;;;17.23;100.00;100143.46;105742;1257;71746;-42
2023/07/08 02:53:17;;;;;;;22.30;1.70;;;;;;;17.25;100.00;100143.69;105632;1253;61646;-43
2023/07/08 02:55:45;;;;;;;3.30;1.40;;;;;;;17.26;100.00;100142.27;105658;1254;60423;-42
2023/07/08 02:58:13;;;;;;;1.40;1.30;;;;;;;17.27;100.00;100141.86;105742;1259;73737;-42
2023/07/08 03:00:40;;;;;;;1.60;1.30;;;;;;;17.30;100.00;100141.19;105725;1255;63944;-42
2023/07/08 03:03:08;;;;;;;7.20;1.70;;;;;;;17.31;100.00;100136.77;105705;1259;72466;-43
2023/07/08 03:05:35;;;;;;;3.50;1.10;;;;;;;17.33;100.00;100139.83;105719;1259;60451;-43
2023/07/08 03:08:04;;;;;;;8.10;1.20;;;;;;;17.37;100.00;100136.99;105717;1258;60336;-42
2023/07/08 03:10:31;;;;;;;2.20;1.10;;;;;;;17.38;100.00;100138.30;105739;1257;73829;-44
2023/07/08 03:12:59;;;;;;;2.10;1.30;;;;;;;17.43;100.00;100133.04;105651;1255;64561;-42
2023/07/08 03:15:26;;;;;;;4.20;1.20;;;;;;;17.47;100.00;100134.75;105634;1258;72669;-44
2023/07/08 03:18:00;;;;;;;3.30;1.40;;;;;;;17.51;100.00;100134.17;105720;1258;61635;-42
2023/07/08 03:20:32;;;;;;;9.50;1.00;;;;;;;17.58;100.00;100126.52;105763;1254;60426;-41
2023/07/08 03:23:00;;;;;;;7.40;1.40;;;;;;;17.60;100.00;100122.71;105679;1260;73796;-42
2023/07/08 03:25:28;;;;;;;2.60;1.20;;;;;;;17.65;100.00;100119.14;105706;1254;65415;-44
2023/07/08 03:27:57;;;;;;;5.70;1.30;;;;;;;17.75;100.00;100119.98;105434;1257;72588;-46
2023/07/08 03:30:26;;;;;;;2.50;1.10;;;;;;;17.86;100.00;100120.13;105709;1258;60471;-45
2023/07/08 03:32:54;;;;;;;3.90;1.10;;;;;;;17.91;100.00;100122.27;105730;1257;60556;-45
2023/07/08 03:35:22;;;;;;;3.40;1.10;;;;;;;18.00;100.00;100117.83;105661;1254;72574;-42
2023/07/08 03:37:52;;;;;;;1.30;0.80;;;;;;;18.09;100.00;100119.39;105645;1254;65264;-45
2023/07/08 03:40:19;;;;;;;8.90;1.50;;;;;;;18.19;100.00;100120.81;105762;1257;70576;-42
2023/07/08 03:42:48;;;;;;;4.30;1.00;;;;;;;18.27;100.00;100119.30;105734;1258;60677;-42
2023/07/08 03:45:16;;;;;;;2.90;0.70;;;;;;;18.43;100.00;100124.69;105723;1257;60419;-43
2023/07/08 03:47:44;;;;;;;6.50;0.90;;;;;;;18.62;100.00;100126.77;105709;1257;72776;-41
2023/07/08 03:50:18;;;;;;;1.50;0.90;;;;;;;18.85;100.00;100127.73;105770;1255;65288;-43
2023/07/08 03:52:46;;;;;;;1.40;0.80;;;;;;;19.12;100.00;100133.90;105677;1254;72698;-43
2023/07/08 03:55:14;;;;;;;0.90;0.70;;;;;;;19.27;100.00;100137.02;105729;1259;60627;-44
2023/07/08 03:57:42;;;;;;;2.10;0.80;;;;;;;19.37;100.00;100137.30;105722;1254;60438;-41
2023/07/08 04:00:12;;;;;;;3.60;0.80;;;;;;;19.56;100.00;100144.75;105701;1257;72873;-44
2023/07/08 04:02:43;;;;;;;1.00;0.60;;;;;;;19.75;100.00;100149.70;105701;1257;65138;-44
2023/07/08 04:05:16;;;;;;;1.90;0.90;;;;;;;19.74;100.00;100151.84;105721;1259;70845;-48
2023/07/08 04:07:45;;;;;;;2.60;0.90;;;;;;;19.66;100.00;100154.98;105660;1259;62016;-44
2023/07/08 04:10:13;;;;;;;2.90;0.80;;;;;;;19.68;100.00;100158.88;105584;1257;60507;-46
2023/07/08 04:12:41;;;;;;;3.40;0.80;;;;;;;19.88;100.00;100167.85;105739;1258;72931;-46
2023/07/08 04:15:10;;;;;;;0.80;0.80;;;;;;;19.90;100.00;100170.16;105697;1259;64078;-43
2023/07/08 04:17:45;;;;;;;1.30;0.70;;;;;;;19.81;100.00;100171.73;105744;1255;72690;-45
2023/07/08 04:20:15;;;;;;;2.70;0.60;;;;;;;19.70;100.00;100166.98;105683;1259;60472;-43
2023/07/08 04:22:43;;;;;;;0.90;0.80;;;;;;;19.68;100.00;100169.73;105726;1259;60546;-45
2023/07/08 04:25:12;;;;;;;0.80;0.80;;;;;;;19.64;100.00;100170.48;105775;1258;73663;-43
2023/07/08 04:27:40;;;;;;;1.00;0.80;;;;;;;19.61;100.00;100181.39;105719;1254;63892;-41
2023/07/08 04:30:15;;;;;;;3.00;0.90;;;;;;;19.61;100.00;100186.28;105727;1255;71432;-42
2023/07/08 04:32:42;;;;;;;0.80;0.80;;;;;;;19.61;100.00;100194.16;105673;1268;61682;-44
2023/07/08 04:35:11;;;;;;;2.70;1.00;;;;;;;19.65;100.00;100192.48;105754;1258;60335;-44
2023/07/08 04:37:38;;;;;;;1.00;0.80;;;;;;;19.71;100.00;100199.87;105734;1257;73973;-43
2023/07/08 04:40:14;;;;;;;2.80;0.90;;;;;;;19.88;100.00;100205.15;105686;1254;65316;-45
2023/07/08 04:42:42;;;;;;;1.10;0.70;;;;;;;20.00;100.00;100209.13;105721;1259;71382;-42
2023/07/08 04:45:10;;;;;;;1.10;0.70;;;;;;;20.12;100.00;100207.73;105687;1254;61715;-43
2023/07/08 04:47:37;;;;;;;1.20;0.80;;;;;;;20.27;100.00;100213.05;105770;1257;60349;-42
2023/07/08 04:50:05;;;;;;;1.00;1.00;;;;;;;20.38;100.00;100214.85;105758;1254;73793;-43
2023/07/08 04:52:33;;;;;;;3.00;1.00;;;;;;;20.49;100.00;100216.11;105746;1258;65148;-42
2023/07/08 04:55:00;;;;;;;0.90;0.90;;;;;;;20.63;100.00;100218.02;105649;1257;72646;-44
2023/07/08 04:57:28;;;;;;;5.30;1.00;;;;;;;20.69;100.00;100221.64;105692;1254;62006;-44
2023/07/08 04:59:56;;;;;;;2.20;1.00;;;;;;;20.80;100.00;100231.70;105698;1257;60404;-42
2023/07/08 05:02:23;;;;;;;3.30;1.30;;;;;;;20.88;100.00;100238.49;105695;1258;73769;-44
2023/07/08 05:04:51;;;;;;;1.60;1.00;;;;;;;20.98;100.00;100249.61;105697;1254;63929;-44
2023/07/08 05:07:18;;;;;;;2.20;1.10;;;;;;;21.11;100.00;100258.77;105712;1254;71667;-43
2023/07/08 05:09:46;;;;;;;0.80;0.80;;;;;;;21.35;100.00;100273.17;105666;1259;61665;-43
2023/07/08 05:12:14;;;;;;;3.60;0.90;;;;;;;21.56;100.00;100279.64;105676;1254;60352;-43
2023/07/08 05:14:42;;;;;;;6.10;0.90;;;;;;;21.69;100.00;100287.10;105706;1254;72626;-43
2023/07/08 05:17:10;;;;;;;5.20;1.20;;;;;;;21.76;100.00;100316.84;105704;1258;65284;-41
2023/07/08 05:19:38;;;;;;;2.80;0.90;;;;;;;21.76;100.00;100361.27;105710;1254;71443;-41
2023/07/08 05:22:05;;;;;;;1.00;1.00;;;;;;;21.72;100.00;100422.43;105682;1257;61636;-43
2023/07/08 05:24:33;;;;;;;1.60;1.10;;;;;;;21.75;100.00;100482.27;105669;1259;60442;-42
2023/07/08 05:27:00;;;;;;;1.00;0.90;;;;;;;21.90;100.00;100530.17;105658;1254;72817;-43
2023/07/08 05:29:29;;;;;;;2.30;1.00;;;;;;;22.00;100.00;100577.46;105692;1257;65253;-44
2023/07/08 05:31:58;;;;;;;1.20;1.00;;;;;;;22.02;100.00;100634.98;105675;1255;71422;-42
2023/07/08 05:34:25;;;;;;;2.30;1.40;;;;;;;22.12;100.00;100664.36;105706;1257;60623;-43
2023/07/08 05:36:53;;;;;;;2.00;1.40;;;;;;;22.33;100.00;100680.77;105657;1257;60414;-44
2023/07/08 05:39:21;;;;;;;4.10;1.50;;;;;;;22.54;100.00;100688.06;105704;1257;73833;-43
2023/07/08 05:41:49;;;;;;;7.40;1.50;;;;;;;22.62;100.00;100686.52;105615;1254;65645;-43
2023/07/08 05:44:16;;;;;;;3.90;1.70;;;;;;;22.75;100.00;100671.82;105575;1259;72017;-41
2023/07/08 05:46:44;;;;;;;2.10;2.00;;;;;;;22.78;100.00;100643.27;105658;1254;61785;-42
2023/07/08 05:49:12;;;;;;;4.60;1.80;;;;;;;22.85;100.00;100618.85;105704;1257;60352;-42
2023/07/08 05:51:39;;;;;;;9.50;2.20;;;;;;;23.01;100.00;100614.45;105695;1252;72617;-41
2023/07/08 05:54:07;;;;;;;6.50;2.10;;;;;;;23.16;100.00;100584.01;105687;1257;64161;-42
2023/07/08 05:56:34;;;;;;;3.30;2.40;;;;;;;23.16;100.00;100506.45;105678;1259;74401;-43
2023/07/08 05:59:03;;;;;;;2.20;2.10;;;;;;;23.22;100.00;100477.70;105666;1254;61607;-43
2023/07/08 06:01:31;;;;;;;2.60;2.40;;;;;;;23.34;100.00;100444.60;105692;1255;60898;-44
2023/07/08 06:03:59;;;;;;;2.40;2.20;;;;;;;23.43;100.00;100355.95;105670;1254;72566;-43
2023/07/08 06:06:27;;;;;;;2.70;2.30;;;;;;;23.42;100.00;100277.02;105719;1254;65134;-44
2023/07/08 06:08:56;;;;;;;4.20;2.10;;;;;;;23.52;100.00;100321.85;105682;1254;71355;-43
2023/07/08 06:11:23;;;;;;;2.00;1.90;;;;;;;23.66;100.00;100246.67;105688;1258;60777;-43
2023/07/08 06:13:51;;;;;;;7.20;2.50;;;;;;;23.68;100.00;100178.14;105664;1265;60343;-46
2023/07/08 06:16:19;;;;;;;4.10;2.20;;;;;;;23.83;100.00;100150.58;105602;1254;72590;-46
2023/07/08 06:19:06;;;;;;;2.30;2.20;;;;;;;23.90;100.00;100142.13;105632;1257;64008;-46
2023/07/08 06:21:34;;;;;;;3.60;2.30;;;;;;;23.96;100.00;100139.36;105659;1257;71453;-46
2023/07/08 06:24:02;;;;;;;2.90;2.20;;;;;;;24.02;100.00;100146.64;105687;1257;60542;-43
2023/07/08 06:26:29;;;;;;;2.40;2.30;;;;;;;24.04;100.00;100119.87;105652;1254;60315;-41
2023/07/08 06:28:57;;;;;;;12.30;3.00;;;;;;;24.00;100.00;100064.01;105658;1254;72320;-41
2023/07/08 06:31:24;;;;;;;2.50;2.30;;;;;;;23.91;100.00;100045.30;105654;1254;64074;-42
2023/07/08 06:33:52;;;;;;;7.90;2.90;;;;;;;23.94;100.00;100095.10;105659;1254;72599;-43
2023/07/08 06:36:20;;;;;;;4.70;2.60;;;;;;;24.02;100.00;100101.23;105670;1257;60423;-43
2023/07/08 06:38:47;;;;;;;3.40;3.10;;;;;;;24.08;100.00;100089.39;105682;1258;60433;-42
2023/07/08 06:41:15;;;;;;;6.00;3.60;;;;;;;24.28;100.00;100124.98;105633;1253;72609;-43
2023/07/08 06:43:43;;;;;;;4.70;3.40;;;;;;;24.42;100.00;100086.70;105688;1257;65272;-44
2023/07/08 06:46:18;;;;;;;4.20;3.20;;;;;;;24.42;100.00;99993.83;105683;1258;72631;-45
2023/07/08 06:48:46;;;;;;;4.80;3.00;;;;;;;24.42;100.00;99978.42;105679;1254;60535;-41
2023/07/08 06:51:14;;;;;;;9.60;3.90;;;;;;;24.49;100.00;99915.75;105900;1256;60390;-42
2023/07/08 06:53:42;;;;;;;4.30;3.90;;;;;;;24.73;100.00;99906.30;105717;1254;72623;-43
2023/07/08 06:56:10;;;;;;;4.20;3.90;;;;;;;24.96;100.00;99852.96;105750;1257;64022;-42
2023/07/08 06:58:38;;;;;;;9.90;3.70;;;;;;;25.16;100.00;99798.27;105667;1257;71389;-42
2023/07/08 07:01:05;;;;;;;5.80;3.80;;;;;;;25.29;100.00;99751.23;105717;1254;60562;-42
2023/07/08 07:03:33;;;;;;;5.80;3.90;;;;;;;25.35;100.00;99692.09;105673;1257;60426;-42
2023/07/08 07:06:01;;;;;;;4.20;3.90;;;;;;;25.47;100.00;99684.59;105653;1257;72558;-45
2023/07/08 07:08:29;;;;;;;9.70;3.40;;;;;;;25.61;100.00;99654.21;105264;1257;585667;-45
2023/07/08 07:11:56;;;;;;;6.10;4.30;;;;;;;25.91;100.00;99652.46;102791;1290;600902;-42
2023/07/08 07:14:24;;;;;;;5.90;4.20;;;;;;;26.13;100.00;99644.30;105172;1264;60026;-44
2023/07/08 07:16:55;;;;;;;5.20;4.40;;;;;;;26.28;100.00;99619.36;105060;1269;60039;-44
2023/07/08 07:19:35;;;;;;;5.00;4.00;;;;;;;26.49;100.00;99597.70;104876;1265;70940;-41
2023/07/08 07:22:03;;;;;;;6.30;4.70;;;;;;;26.44;100.00;99591.89;104921;1270;63923;-43
2023/07/08 07:24:31;;;;;;;5.30;3.90;;;;;;;26.34;100.00;99599.84;104674;1270;321392;-45
2023/07/08 07:26:59;;;;;;;4.50;4.10;;;;;;;26.43;100.00;99613.20;105186;1267;60400;-45
2023/07/08 07:29:27;;;;;;;7.00;4.50;;;;;;;26.62;100.00;99615.58;105250;1263;59348;-41
2023/07/08 07:31:54;;;;;;;4.80;4.40;;;;;;;26.77;100.00;99608.40;105177;1267;71064;-44
2023/07/08 07:34:22;;;;;;;6.80;4.10;;;;;;;26.88;100.00;99602.13;105247;1267;66084;-42
2023/07/08 07:36:50;;;;;;;8.40;4.70;;;;;;;26.87;100.00;99612.88;105186;1267;72609;-42
2023/07/08 07:39:18;;;;;;;8.90;4.90;;;;;;;26.79;100.00;99631.02;105176;1267;59778;-44
2023/07/08 07:41:45;;;;;;;5.00;4.50;;;;;;;26.72;100.00;99634.33;105203;1267;59602;-42
2023/07/08 07:44:13;;;;;;;5.90;4.80;;;;;;;26.78;100.00;99621.91;105217;1264;72979;-44
2023/07/08 07:46:41;;;;;;;5.10;4.40;;;;;;;26.99;100.00;99619.70;105197;1267;63998;-43
2023/07/08 07:49:09;;;;;;;8.40;4.80;;;;;;;27.15;100.00;99638.80;105164;1264;71362;-44
2023/07/08 07:51:36;;;;;;;8.30;4.70;;;;;;;27.23;100.00;99642.59;105195;1264;59987;-43
2023/07/08 07:54:04;;;;;;;11.70;6.80;;;;;;;27.44;100.00;99638.00;105197;1262;60037;-45
2023/07/08 07:56:32;;;;;;;6.40;5.00;;;;;;;27.54;100.00;99655.45;105166;1264;71913;-42
2023/07/08 07:59:00;;;;;;;8.70;4.80;;;;;;;27.59;100.00;99676.19;104998;1267;65284;-45
2023/07/08 08:01:28;;;;;;;7.10;4.80;;;;;;;27.63;100.00;99689.01;105205;1263;71318;-43
2023/07/08 08:03:56;;;;;;;9.70;5.20;;;;;;;27.62;100.00;99712.91;105160;1267;60885;-44
2023/07/08 08:06:23;;;;;;;9.20;4.90;;;;;;;27.64;100.00;99738.94;105172;1264;60037;-44
2023/07/08 08:08:51;;;;;;;6.30;4.70;;;;;;;27.68;100.00;99757.30;105217;1263;73012;-42
2023/07/08 08:11:19;;;;;;;7.50;5.10;;;;;;;27.76;100.00;99771.71;105177;1263;65389;-44
2023/07/08 08:13:47;;;;;;;5.50;4.90;;;;;;;27.83;100.00;99793.11;105192;1263;71938;-43
2023/07/08 08:16:17;;;;;;;5.10;4.30;;;;;;;27.97;100.00;99795.31;105181;1265;60879;-45
2023/07/08 08:18:45;;;;;;;12.60;4.70;;;;;;;28.11;100.00;99804.88;105199;1267;59551;-44
2023/07/08 08:21:13;;;;;;;6.50;4.90;;;;;;;28.19;100.00;99812.06;105615;1259;72034;-44
2023/07/08 08:23:41;;;;;;;9.70;4.60;;;;;;;28.46;100.00;99816.34;105678;1257;64435;-44
2023/07/08 08:26:09;;;;;;;6.00;5.40;;;;;;;28.73;100.00;99833.84;105497;1261;71372;-43
2023/07/08 08:28:37;;;;;;;8.20;5.00;;;;;;;28.84;100.00;99851.52;105594;1257;60027;-46
2023/07/08 08:31:04;;;;;;;8.20;5.00;;;;;;;28.91;100.00;99866.39;105631;1260;59985;-44
2023/07/08 08:33:32;;;;;;;8.20;5.40;;;;;;;28.82;100.00;99879.02;105676;1257;71724;-43
2023/07/08 08:36:00;;;;;;;8.50;5.30;;;;;;;28.79;100.00;99872.55;105670;1256;64592;-44
2023/07/08 08:38:28;;;;;;;5.70;5.00;;;;;;;28.87;100.00;99872.61;105611;1257;72169;-41
2023/07/08 08:40:56;;;;;;;9.30;5.30;;;;;;;28.91;100.00;99881.97;105603;1256;60084;-44
2023/07/08 08:43:31;;;;;;;7.60;4.50;;;;;;;28.99;100.00;99887.59;105619;1260;59631;-43
2023/07/08 08:46:00;;;;;;;5.60;4.70;;;;;;;29.01;100.00;99902.52;105632;1260;72846;-42
2023/07/08 08:48:30;;;;;;;8.60;4.80;;;;;;;29.08;100.00;99896.49;105653;1258;63920;-44
2023/07/08 08:51:06;;;;;;;9.30;4.30;;;;;;;28.99;100.00;99918.31;105619;1260;71871;-43
2023/07/08 08:53:34;;;;;;;4.60;4.30;;;;;;;28.98;100.00;99929.27;105663;1260;60137;-44
2023/07/08 08:56:22;;;;;;;5.30;4.10;;;;;;;29.01;100.00;99926.28;105611;1256;59709;-42
2023/07/08 08:59:16;;;;;;;5.30;4.70;;;;;;;29.02;100.00;99930.20;105652;1257;72983;-44
2023/07/08 09:01:44;;;;;;;7.40;4.60;;;;;;;29.13;100.00;99930.30;105545;1257;64622;-44
2023/07/08 09:04:23;;;;;;;8.70;4.90;;;;;;;29.24;100.00;99930.59;105574;1263;71406;-42
2023/07/08 09:06:52;;;;;;;5.90;4.10;;;;;;;29.29;100.00;99922.79;105621;1260;59698;-42
2023/07/08 09:09:46;;;;;;;10.80;4.70;;;;;;;29.36;100.00;99900.73;105655;1260;59740;-45
2023/07/08 09:12:17;;;;;;;9.50;4.30;;;;;;;29.38;99.54;99890.15;105665;1257;71821;-42
2023/07/08 09:14:45;;;;;;;8.00;4.20;;;;;;;29.53;100.00;99924.05;105646;1258;63941;-44
2023/07/08 09:17:17;;;;;;;7.20;4.70;;;;;;;29.72;100.00;99933.00;105560;1257;71754;-42
2023/07/08 09:19:54;;;;;;;6.10;4.30;;;;;;;29.78;99.28;99926.96;105678;1257;59739;-45
2023/07/08 09:22:46;;;;;;;4.90;4.50;;;;;;;29.67;100.00;99949.67;105622;1260;59724;-45
2023/07/08 09:25:35;;;;;;;6.00;4.00;;;;;;;29.82;100.00;99945.21;105644;1257;71912;-43
2023/07/08 09:28:03;;;;;;;6.70;4.30;;;;;;;29.97;100.00;99950.71;105668;1257;64001;-44
2023/07/08 09:30:31;;;;;;;7.70;5.20;;;;;;;30.18;100.00;99949.52;105688;1257;72595;-45
2023/07/08 09:33:03;;;;;;;6.40;4.90;;;;;;;30.28;97.20;99940.88;105574;1256;59979;-44
2023/07/08 09:35:43;;;;;;;6.10;4.00;;;;;;;30.35;91.28;99933.41;105661;1257;59811;-42
2023/07/08 09:38:16;;;;;;;7.10;3.80;;;;;;;30.51;83.74;99908.58;105614;1260;73044;-42
2023/07/08 09:40:48;;;;;;;8.40;5.70;;;;;;;30.60;81.88;99920.20;105662;1255;64289;-45
2023/07/08 09:43:49;;;;;;;7.20;4.60;;;;;;;30.51;78.48;99910.14;105629;1257;71681;-43
2023/07/08 09:46:17;;;;;;;5.30;4.30;;;;;;;30.34;78.84;99932.48;105505;1256;59695;-44
2023/07/08 09:48:45;;;;;;;11.10;4.40;;;;;;;30.16;80.59;99946.63;105604;1260;59538;-42
2023/07/08 09:51:12;;;;;;;5.50;4.50;;;;;;;30.02;85.83;99970.69;105633;1260;73008;-44
2023/07/08 09:53:40;;;;;;;7.80;5.10;;;;;;;29.95;94.65;99993.59;105497;1257;65242;-43
2023/07/08 09:56:08;;;;;;;16.90;13.30;;;;;;;29.79;99.96;99996.98;105631;1257;71405;-43
2023/07/08 09:58:42;;;;;;;8.90;6.70;;;;;;;29.57;100.00;100009.20;105514;1257;60035;-44
2023/07/08 10:01:18;;;;;;;11.00;9.80;;;;;;;29.57;100.00;100010.11;105617;1256;59960;-44
2023/07/08 10:03:46;;;;;;;13.20;8.80;;;;;;;29.58;100.00;99997.76;105587;1257;72987;-45
2023/07/08 10:06:21;;;;;;;5.60;4.40;;;;;;;29.53;100.00;99998.08;105660;1259;63906;-45
2023/07/08 10:08:49;;;;;;;7.10;4.20;;;;;;;29.16;100.00;100000.98;105701;1257;71834;-44
2023/07/08 10:11:17;;;;;;;8.00;5.10;;;;;;;28.79;100.00;100023.60;105621;1257;60020;-44
2023/07/08 10:13:46;;;;;;;5.40;4.50;;;;;;;28.69;100.00;100011.35;105629;1257;59978;-42
2023/07/08 10:16:31;;;;;;;5.40;4.90;;;;;;;28.79;100.00;99984.25;105650;1254;72260;-43
2023/07/08 10:18:59;;;;;;;9.70;6.80;;;;;;;28.88;100.00;99979.29;105632;1260;65164;-42
2023/07/08 10:21:48;;;;;;;7.40;5.60;;;;;;;28.89;100.00;99979.16;105611;1257;72666;-42
2023/07/08 10:24:41;;;;;;;7.50;5.90;;;;;;;28.89;100.00;99967.70;105664;1254;59997;-43
2023/07/08 10:27:15;;;;;;;6.20;5.10;;;;;;;28.93;100.00;99955.59;105664;1260;59630;-45
2023/07/08 10:29:52;;;;;;;5.80;5.20;;;;;;;29.07;100.00;99944.60;105612;1260;73008;-44
2023/07/08 10:33:02;;;;;;;7.10;5.30;;;;;;;29.24;100.00;99938.39;105655;1258;65336;-45
2023/07/08 10:35:34;;;;;;;9.10;5.20;;;;;;;28.98;100.00;99935.20;105207;1268;72678;-44
2023/07/08 10:38:31;;;;;;;6.60;5.00;;;;;;;28.77;100.00;99933.15;105148;1264;60107;-44
2023/07/08 10:41:25;;;;;;;6.40;5.40;;;;;;;28.79;100.00;99913.04;105561;1257;60214;-43
2023/07/08 10:44:04;;;;;;;6.50;5.40;;;;;;;28.88;100.00;99903.83;105667;1257;72987;-43
2023/07/08 10:46:58;;;;;;;6.30;5.70;;;;;;;28.87;100.00;99903.03;105686;1260;63940;-44
2023/07/08 10:49:50;;;;;;;8.20;5.30;;;;;;;28.67;100.00;99902.42;105649;1257;72680;-45
2023/07/08 10:52:33;;;;;;;5.70;5.20;;;;;;;28.42;100.00;99888.64;105682;1257;59659;-44
2023/07/08 10:55:25;;;;;;;5.40;5.00;;;;;;;28.26;100.00;99861.02;105745;1260;59538;-44
2023/07/08 10:58:24;;;;;;;7.90;6.10;;;;;;;28.35;100.00;99827.84;105622;1256;71839;-46
2023/07/08 11:01:01;;;;;;;6.80;5.10;;;;;;;28.35;100.00;99810.02;105634;1258;64165;-44
2023/07/08 11:03:56;;;;;;;6.20;4.70;;;;;;;28.32;100.00;99790.55;105589;1256;71443;-44
2023/07/08 11:06:26;;;;;;;5.40;4.90;;;;;;;28.11;100.00;99793.14;105616;1257;60014;-42
2023/07/08 11:08:56;;;;;;;6.00;5.30;;;;;;;27.82;100.00;99796.12;105611;1257;59976;-44
2023/07/08 11:11:34;;;;;;;6.80;5.50;;;;;;;27.48;100.00;99783.39;105649;1256;71780;-44
2023/07/08 11:14:21;;;;;;;6.10;5.50;;;;;;;27.12;100.00;99753.95;105682;1260;64010;-43
2023/07/08 11:16:55;;;;;;;6.50;5.80;;;;;;;27.02;100.00;99723.08;105641;1260;71670;-43
2023/07/08 11:19:53;;;;;;;9.50;5.50;;;;;;;26.93;100.00;99702.05;105600;1257;61274;-43
2023/07/08 11:22:21;;;;;;;8.30;6.00;;;;;;;26.81;100.00;99692.88;105448;1257;59545;-43
2023/07/08 11:24:50;;;;;;;6.40;5.10;;;;;;;26.73;100.00;99681.91;105673;1258;72255;-43
2023/07/08 11:27:32;;;;;;;5.90;5.40;;;;;;;26.60;100.00;99675.86;105680;1260;65268;-44
2023/07/08 11:30:05;;;;;;;5.70;5.00;;;;;;;26.43;100.00;99672.55;105654;1258;71403;-44